Terminal Aerodrome Forecast
Issued by NWS Des Moines, IA

Home | Current Version | Previous Version | Text Only | Print | Product List | Glossary On
Versions: 1 2 3 4 5 6 7 8 9 10 11 12 13 14 15 16 17 18 19 20 21 22 23 24 25 26 27 28
000
FTUS43 KDMX 300939 AAC
TAFALO
TAF AMD
KALO 300939Z 3010/3106 00000KT 3SM BR SCT002
      TEMPO 3010/3012 1SM BR VV002
     FM301300 16004KT P6SM SKC
     FM301600 16008KT P6SM SCT050 SCT150
     FM310000 16006KT P6SM VCTS BKN050CB=

USA.gov is the U.S. government's official web portal to all federal, state and local government web resources and services.